createdAt,value
2024-03-24T00:00:13.134Z,4.4049
2024-03-24T00:01:16.161Z,4.3994
2024-03-24T00:02:19.195Z,4.3941
2024-03-24T00:03:22.215Z,4.4012
2024-03-24T00:04:25.288Z,4.4089
2024-03-24T00:05:28.323Z,4.4031
2024-03-24T00:06:31.367Z,4.3984
2024-03-24T00:07:34.396Z,4.3921
2024-03-24T00:08:37.442Z,4.3818
2024-03-24T00:09:40.495Z,4.3779
2024-03-24T00:10:43.533Z,4.3865
2024-03-24T00:11:46.574Z,4.3996
2024-03-24T00:12:49.599Z,4.4226
2024-03-24T00:13:52.652Z,4.4482
2024-03-24T00:14:55.686Z,4.4707
2024-03-24T00:15:59.066Z,4.4883
2024-03-24T00:17:02.121Z,4.5102
2024-03-24T00:18:05.126Z,4.5234
2024-03-24T00:19:08.219Z,4.5413
2024-03-24T00:20:11.252Z,4.5489
2024-03-24T00:21:14.261Z,4.5482
2024-03-24T00:22:17.550Z,4.5508
2024-03-24T00:23:20.590Z,4.5607
2024-03-24T00:24:23.728Z,4.5758
2024-03-24T00:25:26.734Z,4.5856
2024-03-24T00:26:29.769Z,4.5884
2024-03-24T00:27:32.745Z,4.5903
2024-03-24T00:28:35.921Z,4.5970
2024-03-24T00:29:38.939Z,4.6094
2024-03-24T00:30:41.900Z,4.6300
2024-03-24T00:31:44.983Z,4.6468
2024-03-24T00:32:48.018Z,4.6612
2024-03-24T00:33:51.040Z,4.6816
2024-03-24T00:34:54.410Z,4.7069
2024-03-24T00:35:57.608Z,4.7213
2024-03-24T00:37:00.797Z,4.7146
2024-03-24T00:38:03.825Z,4.7199
2024-03-24T00:39:06.883Z,4.7274
2024-03-24T00:40:09.918Z,4.7335
2024-03-24T00:41:12.909Z,4.7389
2024-03-24T00:42:16.004Z,4.7428
2024-03-24T00:43:19.058Z,4.7435
2024-03-24T00:44:22.099Z,4.7337
2024-03-24T00:45:25.146Z,4.7210
2024-03-24T00:46:28.180Z,4.7163
2024-03-24T00:47:31.244Z,4.7172
2024-03-24T00:48:34.247Z,4.7175
2024-03-24T00:49:37.244Z,4.7072
2024-03-24T00:50:40.347Z,4.7107
2024-03-24T00:51:43.362Z,4.7254
2024-03-24T00:52:46.669Z,4.7410
2024-03-24T00:53:49.766Z,4.7586
2024-03-24T00:54:52.787Z,4.7718
2024-03-24T00:55:55.844Z,4.7750
2024-03-24T00:56:58.901Z,4.7658
2024-03-24T00:58:02.275Z,4.7533
2024-03-24T00:59:05.286Z,4.7483
2024-03-24T01:00:08.324Z,4.7522
2024-03-24T01:01:11.391Z,4.7572
2024-03-24T01:02:14.355Z,4.7424
2024-03-24T01:03:17.451Z,4.7395
2024-03-24T01:04:20.507Z,4.7431
2024-03-24T01:05:23.556Z,4.7434
2024-03-24T01:06:26.601Z,4.7336
2024-03-24T01:07:29.676Z,4.7217
2024-03-24T01:08:32.724Z,4.7221
2024-03-24T01:09:35.712Z,4.7141
2024-03-24T01:10:38.752Z,4.7074
2024-03-24T01:11:41.900Z,4.6983
2024-03-24T01:12:44.883Z,4.6938
2024-03-24T01:13:47.900Z,4.6987
2024-03-24T01:14:50.904Z,4.7063
2024-03-24T01:15:53.930Z,4.6917
2024-03-24T01:16:56.893Z,4.6741
2024-03-24T01:18:00.015Z,4.6684
2024-03-24T01:19:03.094Z,4.6693
2024-03-24T01:20:06.073Z,4.6617
2024-03-24T01:21:09.150Z,4.6451
2024-03-24T01:22:12.202Z,4.6277
2024-03-24T01:23:15.198Z,4.6228
2024-03-24T01:24:18.250Z,4.6212
2024-03-24T01:25:21.292Z,4.6040
2024-03-24T01:26:24.392Z,4.6021
2024-03-24T01:27:27.422Z,4.6166
2024-03-24T01:28:30.542Z,4.6272
2024-03-24T01:29:33.532Z,4.6335
2024-03-24T01:30:36.581Z,4.6286
2024-03-24T01:31:39.652Z,4.6300
2024-03-24T01:32:42.652Z,4.6358
2024-03-24T01:33:45.673Z,4.6372
2024-03-24T01:34:48.967Z,4.6392
2024-03-24T01:35:52.045Z,4.6509
2024-03-24T01:36:55.061Z,4.6630
2024-03-24T01:37:58.062Z,4.6702
2024-03-24T01:39:01.132Z,4.6649
2024-03-24T01:40:04.167Z,4.6444
2024-03-24T01:41:07.189Z,4.6312
2024-03-24T01:42:10.196Z,4.6262
2024-03-24T01:43:13.298Z,4.6312
2024-03-24T01:44:16.342Z,4.6404
2024-03-24T01:45:19.353Z,4.6418
2024-03-24T01:46:22.462Z,4.6438
2024-03-24T01:47:25.486Z,4.6538
2024-03-24T01:48:28.493Z,4.6554
2024-03-24T01:49:31.675Z,4.6484
2024-03-24T01:50:34.703Z,4.6411
2024-03-24T01:51:37.684Z,4.6101
2024-03-24T01:52:40.715Z,4.5723
2024-03-24T01:53:43.684Z,4.5434
2024-03-24T01:54:46.746Z,4.5155
2024-03-24T01:55:49.763Z,4.4993
2024-03-24T01:56:52.821Z,4.4958
2024-03-24T01:57:55.867Z,4.4765
2024-03-24T01:58:58.915Z,4.4557
2024-03-24T02:00:01.915Z,4.4519
2024-03-24T02:01:04.936Z,4.4447
2024-03-24T02:02:07.946Z,4.4355
2024-03-24T02:03:11.023Z,4.4337
2024-03-24T02:04:14.132Z,4.4357
2024-03-24T02:05:17.088Z,4.4399
2024-03-24T02:06:20.131Z,4.4387
2024-03-24T02:07:23.166Z,4.4278
2024-03-24T02:08:26.190Z,4.4063
2024-03-24T02:09:29.234Z,4.3910
2024-03-24T02:10:32.275Z,4.3820
2024-03-24T02:11:35.318Z,4.3724
2024-03-24T02:12:38.312Z,4.3667
2024-03-24T02:13:41.426Z,4.3607
2024-03-24T02:14:44.441Z,4.3598
2024-03-24T02:15:47.467Z,4.3607
2024-03-24T02:16:50.535Z,4.3634
2024-03-24T02:17:57.815Z,4.3673
2024-03-24T02:18:55.646Z,4.3732
2024-03-24T02:19:58.644Z,4.3821
2024-03-24T02:21:01.726Z,4.3858
2024-03-24T02:22:04.755Z,4.3800
2024-03-24T02:23:07.914Z,4.3717
2024-03-24T02:24:10.907Z,4.3615
2024-03-24T02:25:13.920Z,4.3394
2024-03-24T02:26:17.267Z,4.3223
2024-03-24T02:27:20.344Z,4.3055
2024-03-24T02:28:23.384Z,4.2811
2024-03-24T02:29:26.674Z,4.2544
2024-03-24T02:30:26.588Z,4.2306
2024-03-24T02:31:29.577Z,4.2048
2024-03-24T02:32:32.669Z,4.1777
2024-03-24T02:33:35.703Z,4.1580
2024-03-24T02:34:38.723Z,4.1454
2024-03-24T02:35:41.726Z,4.1249
2024-03-24T02:36:44.753Z,4.1122
2024-03-24T02:37:47.799Z,4.1011
2024-03-24T02:38:50.844Z,4.0919
2024-03-24T02:39:53.952Z,4.0850
2024-03-24T02:40:56.985Z,4.0767
2024-03-24T02:42:00.072Z,4.0568
2024-03-24T02:43:03.109Z,4.0404
2024-03-24T02:44:06.149Z,4.0346
2024-03-24T02:45:09.244Z,4.0477
2024-03-24T02:46:12.273Z,4.0655
2024-03-24T02:47:15.488Z,4.0838
2024-03-24T02:48:18.532Z,4.1045
2024-03-24T02:49:21.554Z,4.1126
2024-03-24T02:50:24.586Z,4.1159
2024-03-24T02:51:27.906Z,4.1161
2024-03-24T02:52:30.993Z,4.1096
2024-03-24T02:53:34.068Z,4.1024
2024-03-24T02:54:37.136Z,4.1036
2024-03-24T02:55:40.136Z,4.1044
2024-03-24T02:56:43.154Z,4.1106
2024-03-24T02:57:46.353Z,4.1209
2024-03-24T02:58:49.351Z,4.1363
2024-03-24T02:59:52.617Z,4.1404
2024-03-24T03:00:55.624Z,4.1374
2024-03-24T03:01:58.677Z,4.1424
2024-03-24T03:03:01.712Z,4.1576
2024-03-24T03:04:04.708Z,4.1687
2024-03-24T03:05:07.811Z,4.1669
2024-03-24T03:06:11.170Z,4.1561
2024-03-24T03:07:14.174Z,4.1448
2024-03-24T03:08:17.195Z,4.1304
2024-03-24T03:09:20.285Z,4.1245
2024-03-24T03:10:23.324Z,4.1258
2024-03-24T03:11:26.341Z,4.1282
2024-03-24T03:12:29.421Z,4.1332
2024-03-24T03:13:32.409Z,4.1406
2024-03-24T03:14:35.478Z,4.1434
2024-03-24T03:15:38.687Z,4.1590
2024-03-24T03:16:41.692Z,4.1668
2024-03-24T03:17:44.673Z,4.1618
2024-03-24T03:18:47.963Z,4.1681
2024-03-24T03:19:50.990Z,4.1837
2024-03-24T03:20:54.043Z,4.1954
2024-03-24T03:21:57.042Z,4.1986
2024-03-24T03:23:00.144Z,4.1917
2024-03-24T03:24:03.159Z,4.1920
2024-03-24T03:25:06.205Z,4.1801
2024-03-24T03:26:09.240Z,4.1581
2024-03-24T03:27:12.229Z,4.1528
2024-03-24T03:28:15.333Z,4.1520
2024-03-24T03:29:18.364Z,4.1394
2024-03-24T03:30:21.443Z,4.1248
2024-03-24T03:31:24.443Z,4.1018
2024-03-24T03:32:27.498Z,4.0847
2024-03-24T03:33:30.555Z,4.0650
2024-03-24T03:34:33.565Z,4.0413
2024-03-24T03:35:36.604Z,4.0153
2024-03-24T03:36:39.640Z,3.9879
2024-03-24T03:37:42.735Z,3.9672
2024-03-24T03:38:45.818Z,3.9520
2024-03-24T03:39:48.882Z,3.9327
2024-03-24T03:40:51.901Z,3.9026
2024-03-24T03:41:55.166Z,3.8752
2024-03-24T03:42:58.189Z,3.8371
2024-03-24T03:44:01.255Z,3.7505
2024-03-24T03:45:04.281Z,3.6432
2024-03-24T03:46:07.320Z,3.5623
2024-03-24T03:47:10.306Z,3.5061
2024-03-24T03:48:13.398Z,3.4673
2024-03-24T03:49:16.523Z,3.4449
2024-03-24T03:50:19.574Z,3.4398
2024-03-24T03:51:22.618Z,3.4503
2024-03-24T03:52:25.668Z,3.4681
2024-03-24T03:53:28.686Z,3.4813
2024-03-24T03:54:31.731Z,3.4869
2024-03-24T03:55:34.750Z,3.4891
2024-03-24T03:56:37.861Z,3.4896
2024-03-24T03:57:40.867Z,3.4810
2024-03-24T03:58:43.891Z,3.4748
2024-03-24T03:59:46.987Z,3.4721
2024-03-24T04:00:49.949Z,3.4699
2024-03-24T04:01:52.931Z,3.4862
2024-03-24T04:02:55.972Z,3.5191
2024-03-24T04:03:58.942Z,3.5524
2024-03-24T04:05:02.044Z,3.5825
2024-03-24T04:06:05.067Z,3.6037
2024-03-24T04:07:08.119Z,3.6085
2024-03-24T04:08:11.186Z,3.6004
2024-03-24T04:09:14.213Z,3.5861
2024-03-24T04:10:17.395Z,3.5841
2024-03-24T04:11:20.420Z,3.5939
2024-03-24T04:12:23.472Z,3.6169
2024-03-24T04:13:26.775Z,3.6461
2024-03-24T04:14:29.795Z,3.6701
2024-03-24T04:15:32.781Z,3.6925
2024-03-24T04:16:35.970Z,3.7211
2024-03-24T04:17:38.953Z,3.7497
2024-03-24T04:18:42.023Z,3.7698
2024-03-24T04:19:45.028Z,3.7852
2024-03-24T04:20:48.294Z,3.7998
2024-03-24T04:21:51.343Z,3.8176
2024-03-24T04:22:54.373Z,3.8341
2024-03-24T04:23:57.423Z,3.8511
2024-03-24T04:25:00.528Z,3.8687
2024-03-24T04:26:03.525Z,3.8805
2024-03-24T04:27:06.544Z,3.8938
2024-03-24T04:28:09.557Z,3.9050
2024-03-24T04:29:12.562Z,3.9232
2024-03-24T04:30:15.682Z,3.9415
2024-03-24T04:31:18.689Z,3.9564
2024-03-24T04:32:21.745Z,3.9635
2024-03-24T04:33:24.755Z,3.9499
2024-03-24T04:34:27.766Z,3.9296
2024-03-24T04:35:30.857Z,3.9122
2024-03-24T04:36:34.043Z,3.9003
2024-03-24T04:37:37.046Z,3.8758
2024-03-24T04:38:40.059Z,3.8407
2024-03-24T04:39:43.326Z,3.8233
2024-03-24T04:40:46.396Z,3.8086
2024-03-24T04:41:49.475Z,3.7967
2024-03-24T04:42:52.643Z,3.7731
2024-03-24T04:43:55.782Z,3.7493
2024-03-24T04:44:58.843Z,3.7370
2024-03-24T04:46:01.894Z,3.7460
2024-03-24T04:47:04.919Z,3.7589
2024-03-24T04:48:07.955Z,3.7730
2024-03-24T04:49:11.016Z,3.7856
2024-03-24T04:50:14.042Z,3.7994
2024-03-24T04:51:17.143Z,3.8133
2024-03-24T04:52:20.184Z,3.8271
2024-03-24T04:53:23.252Z,3.8390
2024-03-24T04:54:26.515Z,3.8526
2024-03-24T04:55:29.586Z,3.8737
2024-03-24T04:56:32.612Z,3.8899
2024-03-24T04:57:35.632Z,3.9033
2024-03-24T04:58:38.691Z,3.9190
2024-03-24T04:59:41.784Z,3.9345
2024-03-24T05:00:44.868Z,3.9430
2024-03-24T05:01:47.884Z,3.9417
2024-03-24T05:02:50.943Z,3.9408
2024-03-24T05:03:53.961Z,3.9489
2024-03-24T05:04:56.956Z,3.9620
2024-03-24T05:06:00.049Z,3.9817
2024-03-24T05:07:03.088Z,3.9998
2024-03-24T05:08:06.114Z,4.0037
2024-03-24T05:09:09.123Z,3.9973
2024-03-24T05:10:12.219Z,3.9918
2024-03-24T05:11:15.203Z,3.9827
2024-03-24T05:12:18.351Z,3.9680
2024-03-24T05:13:21.343Z,3.9453
2024-03-24T05:14:24.387Z,3.8980
2024-03-24T05:15:27.455Z,3.8353
2024-03-24T05:16:30.489Z,3.7683
2024-03-24T05:17:33.631Z,3.7075
2024-03-24T05:18:36.800Z,3.6490
2024-03-24T05:19:39.834Z,3.5901
2024-03-24T05:20:42.869Z,3.5349
2024-03-24T05:21:45.935Z,3.4732
2024-03-24T05:22:49.036Z,3.4022
2024-03-24T05:23:52.104Z,3.3257
2024-03-24T05:24:55.362Z,3.2535
2024-03-24T05:25:58.365Z,3.1868
2024-03-24T05:27:01.465Z,3.1347
2024-03-24T05:28:04.543Z,3.1060
2024-03-24T05:29:07.572Z,3.0808
2024-03-24T05:30:10.643Z,3.0354
2024-03-24T05:31:13.919Z,3.0074
2024-03-24T05:32:16.952Z,2.9867
2024-03-24T05:33:19.992Z,2.9720
2024-03-24T05:34:23.032Z,2.9620
2024-03-24T05:35:26.068Z,2.9411
2024-03-24T05:36:28.561Z,2.9202
2024-03-24T05:37:30.997Z,2.9123
2024-03-24T05:38:33.593Z,2.9227
2024-03-24T05:39:36.049Z,2.9425
2024-03-24T05:40:38.533Z,2.9462
2024-03-24T05:41:41.109Z,2.9488
2024-03-24T05:42:43.624Z,2.9505
2024-03-24T05:43:46.237Z,2.9361
2024-03-24T05:44:48.727Z,2.9222
2024-03-24T05:45:51.191Z,2.9166
2024-03-24T05:46:53.771Z,2.9055
2024-03-24T05:47:56.225Z,2.8740
2024-03-24T05:48:58.701Z,2.8470
2024-03-24T05:50:01.198Z,2.8224
2024-03-24T05:51:03.699Z,2.8010
2024-03-24T05:52:06.161Z,2.7798
2024-03-24T05:53:08.808Z,2.7634
2024-03-24T05:54:11.315Z,2.7464
2024-03-24T05:55:13.756Z,2.7299
2024-03-24T05:56:16.307Z,2.7274
2024-03-24T05:57:18.792Z,2.7239
2024-03-24T05:58:21.255Z,2.7207
2024-03-24T05:59:23.896Z,2.7260
2024-03-24T06:00:26.505Z,2.7334
2024-03-24T06:01:28.922Z,2.7415
2024-03-24T06:02:31.360Z,2.7462
2024-03-24T06:03:34.087Z,2.7581
2024-03-24T06:04:36.482Z,2.7720
2024-03-24T06:05:38.900Z,2.7797
2024-03-24T06:06:41.353Z,2.7832
2024-03-24T06:07:43.811Z,2.7882
2024-03-24T06:08:46.375Z,2.7941
2024-03-24T06:09:48.791Z,2.7951
2024-03-24T06:10:51.514Z,2.8049
2024-03-24T06:11:54.033Z,2.8183
2024-03-24T06:12:56.440Z,2.8360
2024-03-24T06:13:58.960Z,2.8451
2024-03-24T06:15:01.382Z,2.8501
2024-03-24T06:16:03.832Z,2.8427
2024-03-24T06:17:06.257Z,2.8309
2024-03-24T06:18:08.945Z,2.8217
2024-03-24T06:19:14.213Z,2.8189
2024-03-24T06:20:13.735Z,2.8155
2024-03-24T06:21:16.157Z,2.8162
2024-03-24T06:22:18.574Z,2.8161
2024-03-24T06:23:21.022Z,2.8195
2024-03-24T06:24:23.461Z,2.8289
2024-03-24T06:25:25.911Z,2.8310
2024-03-24T06:26:28.474Z,2.8394
2024-03-24T06:27:30.925Z,2.8543
2024-03-24T06:28:33.603Z,2.8768
2024-03-24T06:29:36.047Z,2.9063
2024-03-24T06:30:38.667Z,2.9408
2024-03-24T06:31:43.842Z,2.9739
2024-03-24T06:32:44.808Z,3.0151
2024-03-24T06:33:47.277Z,3.0610
2024-03-24T06:34:49.713Z,3.1162
2024-03-24T06:35:52.311Z,3.1743
2024-03-24T06:36:54.718Z,3.2290
2024-03-24T06:37:57.179Z,3.2812
2024-03-24T06:38:59.604Z,3.3287
2024-03-24T06:40:02.031Z,3.3748
2024-03-24T06:41:04.479Z,3.4263
2024-03-24T06:42:07.027Z,3.4795
2024-03-24T06:43:09.521Z,3.5349
2024-03-24T06:44:11.914Z,3.5870
2024-03-24T06:45:14.382Z,3.6440
2024-03-24T06:46:16.958Z,3.7168
2024-03-24T06:47:19.398Z,3.7870
2024-03-24T06:48:21.865Z,3.8522
2024-03-24T06:49:24.303Z,3.9129
2024-03-24T06:50:26.874Z,3.9606
2024-03-24T06:51:29.312Z,4.0045
2024-03-24T06:52:32.040Z,4.0423
2024-03-24T06:53:34.800Z,4.0652
2024-03-24T06:54:37.370Z,4.0834
2024-03-24T06:55:39.794Z,4.0990
2024-03-24T06:56:42.554Z,4.1126
2024-03-24T06:57:45.284Z,4.1284
2024-03-24T06:58:47.745Z,4.1478
2024-03-24T06:59:50.182Z,4.1633
2024-03-24T07:00:52.618Z,4.1873
2024-03-24T07:01:55.200Z,4.2233
2024-03-24T07:02:57.638Z,4.2567
2024-03-24T07:04:00.299Z,4.2804
2024-03-24T07:05:02.760Z,4.3044
2024-03-24T07:06:05.429Z,4.3341
2024-03-24T07:07:07.842Z,4.3779
2024-03-24T07:08:10.279Z,4.4158
2024-03-24T07:09:12.742Z,4.4491
2024-03-24T07:10:15.183Z,4.4883
2024-03-24T07:11:17.762Z,4.5236
2024-03-24T07:12:20.189Z,4.5449
2024-03-24T07:13:22.830Z,4.5682
2024-03-24T07:14:25.272Z,4.5923
2024-03-24T07:15:27.741Z,4.6265
2024-03-24T07:16:30.199Z,4.6426
2024-03-24T07:17:32.621Z,4.6400
2024-03-24T07:18:35.041Z,4.6460
2024-03-24T07:19:37.601Z,4.6527
2024-03-24T07:20:40.040Z,4.6706
2024-03-24T07:21:42.448Z,4.7230
2024-03-24T07:22:44.940Z,4.7830
2024-03-24T07:23:47.385Z,4.8508
2024-03-24T07:24:49.930Z,4.9252
2024-03-24T07:25:52.632Z,5.0000
2024-03-24T07:26:55.133Z,5.0810
2024-03-24T07:27:58.069Z,5.1440
2024-03-24T07:29:01.124Z,5.1776
2024-03-24T07:30:04.161Z,5.2021
2024-03-24T07:31:07.180Z,5.2122
2024-03-24T07:32:10.231Z,5.2066
2024-03-24T07:33:13.410Z,5.1997
2024-03-24T07:34:16.434Z,5.1976
2024-03-24T07:35:19.486Z,5.1848
2024-03-24T07:36:22.509Z,5.1682
2024-03-24T07:37:25.520Z,5.1470
2024-03-24T07:38:28.543Z,5.1172
2024-03-24T07:39:31.576Z,5.0885
2024-03-24T07:40:34.871Z,5.0657
2024-03-24T07:41:37.914Z,5.0577
2024-03-24T07:42:43.515Z,5.0640
2024-03-24T07:43:44.061Z,5.1125
2024-03-24T07:44:47.111Z,5.1657
2024-03-24T07:45:50.127Z,5.2124
2024-03-24T07:46:53.226Z,5.2470
2024-03-24T07:47:56.258Z,5.2948
2024-03-24T07:48:59.298Z,5.3568
2024-03-24T07:50:02.335Z,5.4319
2024-03-24T07:51:05.342Z,5.5280
2024-03-24T07:52:08.361Z,5.5991
2024-03-24T07:53:11.390Z,5.6659
2024-03-24T07:54:14.526Z,5.7330
2024-03-24T07:55:17.584Z,5.7972
2024-03-24T07:56:20.557Z,5.8413
2024-03-24T07:57:23.831Z,5.8832
2024-03-24T07:58:27.053Z,5.9229
2024-03-24T07:59:30.198Z,5.9629
2024-03-24T08:00:33.253Z,6.0138
2024-03-24T08:01:36.305Z,6.0569
2024-03-24T08:02:39.387Z,6.0848
2024-03-24T08:03:42.381Z,6.1059
2024-03-24T08:04:45.471Z,6.1210
2024-03-24T08:05:48.548Z,6.1467
2024-03-24T08:06:51.630Z,6.1736
2024-03-24T08:07:56.440Z,6.2063
2024-03-24T08:08:56.422Z,6.2515
2024-03-24T08:09:59.651Z,6.3054
2024-03-24T08:11:02.703Z,6.3507
2024-03-24T08:12:05.831Z,6.3925
2024-03-24T08:13:08.841Z,6.4417
2024-03-24T08:14:11.936Z,6.5041
2024-03-24T08:15:14.953Z,6.5617
2024-03-24T08:16:17.965Z,6.6094
2024-03-24T08:17:21.267Z,6.6310
2024-03-24T08:18:24.301Z,6.6280
2024-03-24T08:19:27.341Z,6.6015
2024-03-24T08:20:30.431Z,6.5908
2024-03-24T08:21:33.522Z,6.5970
2024-03-24T08:22:36.804Z,6.6047
2024-03-24T08:23:39.909Z,6.6014
2024-03-24T08:24:42.928Z,6.5935
2024-03-24T08:25:45.896Z,6.6059
2024-03-24T08:26:48.968Z,6.6273
2024-03-24T08:27:51.981Z,6.6444
2024-03-24T08:28:55.007Z,6.6702
2024-03-24T08:29:58.052Z,6.6941
2024-03-24T08:31:01.061Z,6.6937
2024-03-24T08:32:04.074Z,6.6863
2024-03-24T08:33:07.181Z,6.6817
2024-03-24T08:34:10.220Z,6.6682
2024-03-24T08:35:13.221Z,6.6536
2024-03-24T08:36:16.629Z,6.6653
2024-03-24T08:37:19.696Z,6.6889
2024-03-24T08:38:22.869Z,6.6949
2024-03-24T08:39:25.889Z,6.6935
2024-03-24T08:40:31.120Z,6.6990
2024-03-24T08:41:31.911Z,6.7230
2024-03-24T08:42:34.904Z,6.7585
2024-03-24T08:43:37.899Z,6.7721
2024-03-24T08:44:40.958Z,6.7680
2024-03-24T08:45:43.994Z,6.7564
2024-03-24T08:46:47.043Z,6.7440
2024-03-24T08:47:50.058Z,6.7693
2024-03-24T08:48:53.087Z,6.8519
2024-03-24T08:49:56.147Z,6.9768
2024-03-24T08:50:59.126Z,7.1157
2024-03-24T08:52:02.253Z,7.2236
2024-03-24T08:53:05.258Z,7.2943
2024-03-24T08:54:08.567Z,7.3298
2024-03-24T08:55:11.704Z,7.3551
2024-03-24T08:56:14.700Z,7.3541
2024-03-24T08:57:17.736Z,7.3253
2024-03-24T08:58:20.800Z,7.2859
2024-03-24T08:59:23.996Z,7.2437
2024-03-24T09:00:27.190Z,7.2063
2024-03-24T09:01:30.283Z,7.1762
2024-03-24T09:02:33.503Z,7.1460
2024-03-24T09:03:36.600Z,7.0870
2024-03-24T09:04:39.690Z,7.0094
2024-03-24T09:05:42.756Z,6.9532
2024-03-24T09:06:45.769Z,6.8987
2024-03-24T09:07:48.817Z,6.9046
2024-03-24T09:08:51.865Z,6.9339
2024-03-24T09:09:54.893Z,6.9255
2024-03-24T09:10:57.888Z,6.9533
2024-03-24T09:12:01.046Z,6.9613
2024-03-24T09:13:04.060Z,6.9760
2024-03-24T09:14:07.076Z,6.9852
2024-03-24T09:15:10.267Z,7.0092
2024-03-24T09:16:13.239Z,7.0472
2024-03-24T09:17:16.392Z,7.0920
2024-03-24T09:18:19.495Z,7.1330
2024-03-24T09:19:22.548Z,7.1777
2024-03-24T09:20:25.620Z,7.2313
2024-03-24T09:21:28.643Z,7.2777
2024-03-24T09:22:31.657Z,7.3072
2024-03-24T09:23:34.706Z,7.3464
2024-03-24T09:24:37.752Z,7.4420
2024-03-24T09:25:40.772Z,7.5686
2024-03-24T09:26:43.822Z,7.7228
2024-03-24T09:27:46.869Z,7.9103
2024-03-24T09:28:49.889Z,8.1387
2024-03-24T09:29:52.989Z,8.3640
2024-03-24T09:30:56.033Z,8.5787
2024-03-24T09:31:59.075Z,8.8085
2024-03-24T09:33:02.092Z,9.0401
2024-03-24T09:34:05.354Z,9.2410
2024-03-24T09:35:13.272Z,9.4699
2024-03-24T09:36:10.583Z,9.6880
2024-03-24T09:37:13.575Z,9.8065
2024-03-24T09:38:16.856Z,9.8199
2024-03-24T09:39:19.962Z,9.7918
2024-03-24T09:40:23.054Z,9.8093
2024-03-24T09:41:26.096Z,9.7660
2024-03-24T09:42:29.100Z,9.6875
2024-03-24T09:43:32.160Z,9.6249
2024-03-24T09:44:35.234Z,9.6481
2024-03-24T09:45:38.260Z,9.7465
2024-03-24T09:46:41.242Z,9.8244
2024-03-24T09:47:44.301Z,9.8674
2024-03-24T09:48:47.301Z,9.8903
2024-03-24T09:49:50.319Z,9.8821
2024-03-24T09:50:53.393Z,9.9609
2024-03-24T09:51:56.452Z,10.1685
2024-03-24T09:52:59.489Z,10.4356
2024-03-24T09:54:02.553Z,10.7086
2024-03-24T09:55:05.580Z,10.9511
2024-03-24T09:56:08.608Z,11.2683
2024-03-24T09:57:11.663Z,11.5430
2024-03-24T09:58:17.214Z,11.6951
2024-03-24T09:59:17.462Z,11.7676
2024-03-24T10:00:20.724Z,11.8139
2024-03-24T10:01:23.826Z,11.9163
2024-03-24T10:02:26.845Z,12.1965
2024-03-24T10:03:29.922Z,12.4335
2024-03-24T10:04:32.922Z,12.6261
2024-03-24T10:05:35.981Z,12.7605
2024-03-24T10:06:38.996Z,12.7695
2024-03-24T10:07:42.053Z,12.7148
2024-03-24T10:08:45.104Z,12.6328
2024-03-24T10:09:48.187Z,12.5213
2024-03-24T10:10:51.163Z,12.3755
2024-03-24T10:11:54.314Z,12.2187
2024-03-24T10:12:57.334Z,12.0684
2024-03-24T10:14:00.364Z,11.9401
2024-03-24T10:15:03.389Z,11.8045
2024-03-24T10:16:06.400Z,11.6565
2024-03-24T10:17:09.433Z,11.4771
2024-03-24T10:18:09.652Z,11.2933
2024-03-24T10:19:12.697Z,11.1098
2024-03-24T10:20:15.746Z,10.9193
2024-03-24T10:21:18.741Z,10.7295
2024-03-24T10:22:22.090Z,10.5485
2024-03-24T10:23:25.100Z,10.3260
2024-03-24T10:24:28.140Z,10.0830
2024-03-24T10:25:31.198Z,9.8776
2024-03-24T10:26:34.269Z,9.7115
2024-03-24T10:27:37.297Z,9.5669
2024-03-24T10:28:40.313Z,9.4570
2024-03-24T10:29:43.429Z,9.3796
2024-03-24T10:30:46.445Z,9.3011
2024-03-24T10:31:52.731Z,9.2307
2024-03-24T10:32:52.843Z,9.1842
2024-03-24T10:33:55.848Z,9.1780
2024-03-24T10:34:58.858Z,9.2415
2024-03-24T10:36:02.032Z,9.4699
2024-03-24T10:37:05.041Z,9.7455
2024-03-24T10:38:08.189Z,10.0165
2024-03-24T10:39:11.242Z,10.2675
2024-03-24T10:40:14.371Z,10.3813
2024-03-24T10:41:17.420Z,10.4969
2024-03-24T10:42:20.459Z,10.7164
2024-03-24T10:43:23.525Z,10.9683
2024-03-24T10:44:26.502Z,11.2430
2024-03-24T10:45:29.542Z,11.4666
2024-03-24T10:46:32.579Z,11.6054
2024-03-24T10:47:35.712Z,11.7638
2024-03-24T10:48:38.730Z,11.9123
2024-03-24T10:49:41.789Z,11.9910
2024-03-24T10:50:44.814Z,12.1551
2024-03-24T10:51:47.855Z,12.3533
2024-03-24T10:52:53.250Z,12.5821
2024-03-24T10:53:53.318Z,12.8100
2024-03-24T10:54:56.348Z,13.0646
2024-03-24T10:55:59.379Z,13.3367
2024-03-24T10:57:02.394Z,13.6628
2024-03-24T10:58:05.413Z,13.9839
2024-03-24T10:59:11.307Z,14.1982
2024-03-24T11:00:08.717Z,14.3026
2024-03-24T11:01:11.999Z,14.3029
2024-03-24T11:02:15.077Z,14.2554
2024-03-24T11:03:18.131Z,14.1832
2024-03-24T11:04:21.149Z,14.0586
2024-03-24T11:05:24.160Z,13.8731
2024-03-24T11:06:27.180Z,13.6591
2024-03-24T11:07:30.246Z,13.4059
2024-03-24T11:08:33.269Z,13.0945
2024-03-24T11:09:36.289Z,12.7483
2024-03-24T11:10:39.346Z,12.3638
2024-03-24T11:11:42.478Z,11.9526
2024-03-24T11:12:45.609Z,11.5461
2024-03-24T11:13:48.778Z,11.1342
2024-03-24T11:14:51.880Z,10.7476
2024-03-24T11:15:54.904Z,10.4300
2024-03-24T11:16:57.408Z,10.1999
2024-03-24T11:17:59.971Z,10.0378
2024-03-24T11:19:02.420Z,9.9527
2024-03-24T11:20:04.886Z,9.9374
2024-03-24T11:21:07.347Z,9.9900
2024-03-24T11:22:09.772Z,10.0768
2024-03-24T11:23:12.292Z,10.1823
2024-03-24T11:24:14.747Z,10.2941
2024-03-24T11:25:17.350Z,10.4128
2024-03-24T11:26:19.898Z,10.5283
2024-03-24T11:27:22.926Z,10.6352
2024-03-24T11:28:23.083Z,10.7287
2024-03-24T11:29:26.177Z,10.8252
2024-03-24T11:30:29.177Z,11.0011
2024-03-24T11:31:32.167Z,11.2370
2024-03-24T11:32:35.178Z,11.4581
2024-03-24T11:33:38.220Z,11.6619
2024-03-24T11:34:41.248Z,11.7926
2024-03-24T11:35:44.340Z,11.8543
2024-03-24T11:36:47.375Z,11.8761
2024-03-24T11:37:50.445Z,11.9039
2024-03-24T11:38:53.418Z,12.0292
2024-03-24T11:39:56.495Z,12.2092
2024-03-24T11:40:59.539Z,12.3727
2024-03-24T11:42:02.592Z,12.5577
2024-03-24T11:43:05.619Z,12.7856
2024-03-24T11:44:08.645Z,12.9909
2024-03-24T11:45:11.727Z,13.1895
2024-03-24T11:46:14.717Z,13.3576
2024-03-24T11:47:17.778Z,13.5061
2024-03-24T11:48:20.829Z,13.6460
2024-03-24T11:49:23.849Z,13.7927
2024-03-24T11:50:27.239Z,13.9111
2024-03-24T11:51:30.262Z,14.0187
2024-03-24T11:52:33.366Z,14.0565
2024-03-24T11:53:36.395Z,14.0851
2024-03-24T11:54:39.420Z,14.1302
2024-03-24T11:55:42.419Z,14.1627
2024-03-24T11:56:45.465Z,14.2544
2024-03-24T11:57:48.529Z,14.3683
2024-03-24T11:58:51.540Z,14.4497
2024-03-24T11:59:54.576Z,14.5447
2024-03-24T12:00:57.628Z,14.6411
2024-03-24T12:02:00.662Z,14.7436
2024-03-24T12:03:03.747Z,14.8483
2024-03-24T12:04:06.736Z,14.8837
2024-03-24T12:05:09.748Z,14.8615
2024-03-24T12:06:12.798Z,14.8346
2024-03-24T12:07:15.898Z,14.7754
2024-03-24T12:08:18.908Z,14.7064
2024-03-24T12:09:21.921Z,14.6201
2024-03-24T12:10:24.987Z,14.5376
2024-03-24T12:11:28.027Z,14.4304
2024-03-24T12:12:31.067Z,14.3426
2024-03-24T12:13:34.116Z,14.3309
2024-03-24T12:14:37.146Z,14.3250
2024-03-24T12:15:40.171Z,14.2868
2024-03-24T12:16:43.247Z,14.2227
2024-03-24T12:17:46.287Z,14.1439
2024-03-24T12:18:49.306Z,14.0564
2024-03-24T12:19:52.372Z,13.9808
2024-03-24T12:20:55.504Z,13.9798
2024-03-24T12:21:58.570Z,14.0528
2024-03-24T12:23:01.606Z,14.1255
2024-03-24T12:24:04.826Z,14.2022
2024-03-24T12:25:07.824Z,14.2312
2024-03-24T12:26:10.834Z,14.1730
2024-03-24T12:27:13.940Z,14.1232
2024-03-24T12:28:16.985Z,14.1487
2024-03-24T12:29:20.020Z,14.2155
2024-03-24T12:30:23.074Z,14.3049
2024-03-24T12:31:26.426Z,14.3674
2024-03-24T12:32:29.461Z,14.3964
2024-03-24T12:33:32.499Z,14.3911
2024-03-24T12:34:35.540Z,14.3448
2024-03-24T12:35:38.588Z,14.2883
2024-03-24T12:36:41.618Z,14.1796
2024-03-24T12:37:44.698Z,14.0320
2024-03-24T12:38:47.719Z,13.8288
2024-03-24T12:39:50.736Z,13.5984
2024-03-24T12:40:55.245Z,13.3560
2024-03-24T12:41:54.968Z,13.1251
2024-03-24T12:42:58.160Z,12.9204
2024-03-24T12:44:01.303Z,12.7573
2024-03-24T12:45:04.353Z,12.6164
2024-03-24T12:46:07.367Z,12.5971
2024-03-24T12:47:10.432Z,12.6470
2024-03-24T12:48:13.498Z,12.7390
2024-03-24T12:49:16.496Z,12.8257
2024-03-24T12:51:22.647Z,12.9558
2024-03-24T12:52:25.646Z,13.0144
2024-03-24T12:53:28.676Z,13.0802
2024-03-24T12:54:31.701Z,13.1425
2024-03-24T12:55:34.757Z,13.2108
2024-03-24T12:56:37.779Z,13.2847
2024-03-24T12:57:40.819Z,13.3767
2024-03-24T12:58:43.863Z,13.4612
2024-03-24T12:59:46.896Z,13.5425
2024-03-24T13:00:49.956Z,13.6222